Time;durP1;ratioP1;P1;durP2;ratioP2;P2;SDS_P1;SDS_P2;PMS_P1;PMS_P2;Temp;Humidity;BMP_temperature;BMP_pressure;BME280_temperature;BME280_humidity;BME280_pressure;Samples;Min_cycle;Max_cycle;Signal;HPM_P1;HPM_P2
2021/05/03 00:01:11;;;;;;;;;2.50;2.50;;;;;;;;3524438;39;113844;-77
2021/05/03 00:03:37;;;;;;;;;3.50;2.00;;;;;;;;3524058;39;113976;-76
2021/05/03 00:06:04;;;;;;;;;2.00;2.00;;;;;;;;3524495;39;111921;-78
2021/05/03 00:08:30;;;;;;;;;2.25;2.25;;;;;;;;3524522;39;113337;-77
2021/05/03 00:10:56;;;;;;;;;3.50;2.75;;;;;;;;3522354;39;111990;-77
2021/05/03 00:13:22;;;;;;;;;5.75;3.50;;;;;;;;3524592;39;113445;-77
2021/05/03 00:15:49;;;;;;;;;5.25;5.00;;;;;;;;3524049;39;114837;-74
2021/05/03 00:18:15;;;;;;;;;5.00;5.00;;;;;;;;3524483;39;113048;-77
2021/05/03 00:20:41;;;;;;;;;8.00;3.50;;;;;;;;3524527;39;113704;-75
2021/05/03 00:23:07;;;;;;;;;5.00;3.00;;;;;;;;3523966;39;113966;-77
2021/05/03 00:25:33;;;;;;;;;5.50;3.25;;;;;;;;3524560;39;112220;-78
2021/05/03 00:27:59;;;;;;;;;3.00;3.00;;;;;;;;3524424;39;113432;-77
2021/05/03 00:30:26;;;;;;;;;6.50;4.00;;;;;;;;3524607;39;113857;-77
2021/05/03 00:32:53;;;;;;;;;7.00;3.50;;;;;;;;3524369;39;113376;-78
2021/05/03 00:35:19;;;;;;;;;3.00;3.00;;;;;;;;3524147;39;113809;-77
2021/05/03 00:37:45;;;;;;;;;6.25;4.00;;;;;;;;3522425;39;113132;-76
2021/05/03 00:40:11;;;;;;;;;5.75;5.75;;;;;;;;3524218;39;113851;-76
2021/05/03 00:42:37;;;;;;;;;4.00;4.00;;;;;;;;3524021;39;114091;-77
2021/05/03 00:45:08;;;;;;;;;4.00;4.00;;;;;;;;3524284;39;111870;-77
2021/05/03 00:47:34;;;;;;;;;6.50;4.50;;;;;;;;3524507;39;113185;-77
2021/05/03 00:50:01;;;;;;;;;5.75;4.00;;;;;;;;3523769;39;114461;-77
2021/05/03 00:52:27;;;;;;;;;7.00;4.00;;;;;;;;3527134;39;111804;-76
2021/05/03 00:54:53;;;;;;;;;7.00;3.75;;;;;;;;3523679;39;114179;-76
2021/05/03 00:57:19;;;;;;;;;6.00;4.00;;;;;;;;3522242;39;112988;-76
2021/05/03 00:59:46;;;;;;;;;7.25;6.00;;;;;;;;3524015;39;113954;-77
2021/05/03 01:02:12;;;;;;;;;6.00;4.50;;;;;;;;3524011;39;114006;-77
2021/05/03 01:04:38;;;;;;;;;6.00;4.50;;;;;;;;3524346;39;111961;-77
2021/05/03 01:07:05;;;;;;;;;6.00;5.00;;;;;;;;3524249;39;114416;-76
2021/05/03 01:09:31;;;;;;;;;5.50;5.50;;;;;;;;3524008;39;113241;-76
2021/05/03 01:11:57;;;;;;;;;4.50;4.50;;;;;;;;3524062;39;112081;-76
2021/05/03 01:14:23;;;;;;;;;5.00;5.00;;;;;;;;3526574;39;113129;-77
2021/05/03 01:16:49;;;;;;;;;6.50;4.00;;;;;;;;3522073;39;113491;-77
2021/05/03 01:19:19;;;;;;;;;4.00;4.00;;;;;;;;3524344;39;113328;-77
2021/05/03 01:21:46;;;;;;;;;7.50;6.00;;;;;;;;3523626;39;113880;-76
2021/05/03 01:24:12;;;;;;;;;7.75;6.00;;;;;;;;3524070;39;111921;-75
2021/05/03 01:26:38;;;;;;;;;6.25;5.00;;;;;;;;3524142;39;113535;-75
2021/05/03 01:29:04;;;;;;;;;6.00;4.00;;;;;;;;3523533;39;114357;-76
2021/05/03 01:31:30;;;;;;;;;9.00;4.50;;;;;;;;3524091;39;111838;-76
2021/05/03 01:33:56;;;;;;;;;7.25;3.75;;;;;;;;3524136;39;113146;-76
2021/05/03 01:36:22;;;;;;;;;5.50;5.50;;;;;;;;3526245;39;114196;-76
2021/05/03 01:38:49;;;;;;;;;6.00;4.00;;;;;;;;3524000;39;113209;-76
2021/05/03 01:41:18;;;;;;;;;3.00;3.00;;;;;;;;3523437;39;113664;-76
2021/05/03 01:43:46;;;;;;;;;8.00;4.00;;;;;;;;3524186;39;112163;-76
2021/05/03 01:46:12;;;;;;;;;7.75;6.00;;;;;;;;3524084;39;113739;-76
2021/05/03 01:48:38;;;;;;;;;4.00;4.00;;;;;;;;3523188;39;114130;-76
2021/05/03 01:51:06;;;;;;;;;5.25;4.00;;;;;;;;3522878;39;111937;-76
2021/05/03 01:53:32;;;;;;;;;7.25;6.50;;;;;;;;3523993;39;113159;-76
2021/05/03 01:55:59;;;;;;;;;6.25;4.50;;;;;;;;3523546;39;114682;-76
2021/05/03 01:58:26;;;;;;;;;7.00;4.00;;;;;;;;3524756;39;112717;-76
2021/05/03 02:00:52;;;;;;;;;5.00;4.00;;;;;;;;3523530;39;113928;-76
2021/05/03 02:03:18;;;;;;;;;5.50;5.00;;;;;;;;3523910;39;112245;-76
2021/05/03 02:05:45;;;;;;;;;5.75;3.50;;;;;;;;3524123;39;112761;-78
2021/05/03 02:08:11;;;;;;;;;6.50;5.50;;;;;;;;3523192;39;114401;-75
2021/05/03 02:10:37;;;;;;;;;6.50;3.25;;;;;;;;3523202;39;112504;-75
2021/05/03 02:13:05;;;;;;;;;4.50;4.50;;;;;;;;3523586;39;113675;-75
2021/05/03 02:15:32;;;;;;;;;4.25;3.25;;;;;;;;3523599;39;114107;-74
2021/05/03 02:17:58;;;;;;;;;4.00;4.00;;;;;;;;3526503;39;112333;-76
2021/05/03 02:20:24;;;;;;;;;6.25;4.00;;;;;;;;3523516;39;113472;-75
2021/05/03 02:22:51;;;;;;;;;6.50;3.75;;;;;;;;3523718;39;112125;-75
2021/05/03 02:25:18;;;;;;;;;7.25;6.00;;;;;;;;3523959;39;113234;-75
2021/05/03 02:27:44;;;;;;;;;6.00;5.00;;;;;;;;3523406;39;114023;-77
2021/05/03 02:30:12;;;;;;;;;6.00;4.00;;;;;;;;3523848;39;111837;-75
2021/05/03 02:32:39;;;;;;;;;4.00;3.50;;;;;;;;3523863;39;113754;-75
2021/05/03 02:35:07;;;;;;;;;10.00;6.75;;;;;;;;3522900;39;114741;-75
2021/05/03 02:37:33;;;;;;;;;4.50;4.50;;;;;;;;3523221;39;111991;-75
2021/05/03 02:39:59;;;;;;;;;4.25;3.25;;;;;;;;3525320;39;113658;-76
2021/05/03 02:42:25;;;;;;;;;8.25;5.50;;;;;;;;3524105;39;111725;-76
2021/05/03 02:44:51;;;;;;;;;7.25;7.00;;;;;;;;3523261;39;113424;-78
2021/05/03 02:47:18;;;;;;;;;6.00;4.00;;;;;;;;3518752;39;113764;-77
2021/05/03 02:49:44;;;;;;;;;5.00;5.00;;;;;;;;3443755;39;112125;-75
2021/05/03 02:52:11;;;;;;;;;6.75;6.75;;;;;;;;3511375;40;113405;-76
2021/05/03 02:54:37;;;;;;;;;5.50;5.50;;;;;;;;3513379;39;113671;-75
2021/05/03 02:57:03;;;;;;;;;7.50;6.50;;;;;;;;3493594;39;112729;-77
2021/05/03 02:59:29;;;;;;;;;7.50;6.00;;;;;;;;3512296;40;113809;-76
2021/05/03 03:01:55;;;;;;;;;6.00;5.50;;;;;;;;3516017;40;114003;-77
2021/05/03 03:04:22;;;;;;;;;3.75;3.75;;;;;;;;3513921;40;113381;-77
2021/05/03 03:06:49;;;;;;;;;6.00;3.50;;;;;;;;3512760;40;113918;-77
2021/05/03 03:09:15;;;;;;;;;10.00;4.00;;;;;;;;3513667;39;111900;-77
2021/05/03 03:11:43;;;;;;;;;7.50;6.25;;;;;;;;3513567;40;113832;-76
2021/05/03 03:14:09;;;;;;;;;10.50;7.00;;;;;;;;3513140;40;113960;-76
2021/05/03 03:16:35;;;;;;;;;5.50;4.50;;;;;;;;3513861;40;111902;-76
2021/05/03 03:19:02;;;;;;;;;10.25;6.75;;;;;;;;3513463;40;113643;-76
2021/05/03 03:21:29;;;;;;;;;8.50;6.25;;;;;;;;3513171;40;113930;-76
2021/05/03 03:23:55;;;;;;;;;11.50;7.50;;;;;;;;3514092;40;111968;-76
2021/05/03 03:26:21;;;;;;;;;5.50;5.50;;;;;;;;3513172;40;114539;-76
2021/05/03 03:28:49;;;;;;;;;7.50;6.00;;;;;;;;3513608;40;111893;-76
2021/05/03 03:31:15;;;;;;;;;8.25;7.00;;;;;;;;3513276;40;114039;-76
2021/05/03 03:33:41;;;;;;;;;7.00;6.75;;;;;;;;3513097;40;113891;-76
2021/05/03 03:36:07;;;;;;;;;9.25;6.00;;;;;;;;3513434;40;111990;-76
2021/05/03 03:38:35;;;;;;;;;6.00;5.50;;;;;;;;3513676;40;113292;-76
2021/05/03 03:41:01;;;;;;;;;10.00;6.00;;;;;;;;3510849;40;113877;-75
2021/05/03 03:43:27;;;;;;;;;8.25;7.00;;;;;;;;3513462;40;111972;-77
2021/05/03 03:45:53;;;;;;;;;9.50;7.50;;;;;;;;3515474;40;113289;-75
2021/05/03 03:48:19;;;;;;;;;6.75;6.75;;;;;;;;3513426;40;111871;-76
2021/05/03 03:50:45;;;;;;;;;8.00;7.00;;;;;;;;3513535;40;113901;-75
2021/05/03 03:53:11;;;;;;;;;6.00;4.00;;;;;;;;3512927;40;113808;-76
2021/05/03 03:55:38;;;;;;;;;6.50;5.25;;;;;;;;3513548;40;112666;-76
2021/05/03 03:58:05;;;;;;;;;8.25;7.00;;;;;;;;3513685;40;113469;-77
2021/05/03 04:00:31;;;;;;;;;7.50;7.00;;;;;;;;3513283;40;113868;-77
2021/05/03 04:02:57;;;;;;;;;3.00;3.00;;;;;;;;3513548;39;111991;-76
2021/05/03 04:05:33;;;;;;;;;6.00;6.00;;;;;;;;3513494;40;113351;-75
2021/05/03 04:08:05;;;;;;;;;7.50;6.50;;;;;;;;3515505;40;111948;-75
2021/05/03 04:10:43;;;;;;;;;7.00;6.00;;;;;;;;3511691;40;113676;-75
2021/05/03 04:21:29;;;;;;;;;5.00;3.50;;;;;;;;3512751;40;112415;-75
2021/05/03 04:24:07;;;;;;;;;8.00;7.00;;;;;;;;3513053;40;112596;-76
2021/05/03 04:26:33;;;;;;;;;8.75;7.25;;;;;;;;3511305;40;113487;-76
2021/05/03 04:29:00;;;;;;;;;11.00;7.75;;;;;;;;3515269;40;113736;-76
2021/05/03 04:31:26;;;;;;;;;9.25;6.75;;;;;;;;3512944;40;113193;-75
2021/05/03 04:33:52;;;;;;;;;4.00;3.50;;;;;;;;3512974;40;113969;-77
2021/05/03 04:36:22;;;;;;;;;7.75;6.50;;;;;;;;3514469;40;111854;-76
2021/05/03 04:38:49;;;;;;;;;10.00;8.25;;;;;;;;3514631;40;114596;-76
2021/05/03 04:41:16;;;;;;;;;9.50;8.25;;;;;;;;3513745;40;114002;-76
2021/05/03 04:43:42;;;;;;;;;8.00;6.00;;;;;;;;3514393;40;112385;-77
2021/05/03 04:46:10;;;;;;;;;7.50;7.50;;;;;;;;3514463;39;113196;-76
2021/05/03 04:48:36;;;;;;;;;9.50;7.50;;;;;;;;3513856;40;114222;-76
2021/05/03 04:51:02;;;;;;;;;7.75;7.25;;;;;;;;3517112;40;111835;-77
2021/05/03 04:53:28;;;;;;;;;7.00;6.00;;;;;;;;3513947;40;113829;-75
2021/05/03 04:55:54;;;;;;;;;9.75;6.00;;;;;;;;3514109;39;112577;-76
2021/05/03 04:58:21;;;;;;;;;10.50;8.00;;;;;;;;3514268;40;113536;-76
2021/05/03 05:00:47;;;;;;;;;9.75;6.50;;;;;;;;3513865;40;114220;-75
2021/05/03 05:03:14;;;;;;;;;10.50;10.00;;;;;;;;3514201;40;111902;-75
2021/05/03 05:05:40;;;;;;;;;8.75;8.50;;;;;;;;3514629;40;113217;-75
2021/05/03 05:08:06;;;;;;;;;12.75;8.75;;;;;;;;3514033;40;114473;-76
2021/05/03 05:10:32;;;;;;;;;7.75;6.25;;;;;;;;3514511;39;111823;-75
2021/05/03 05:12:59;;;;;;;;;6.00;6.00;;;;;;;;3514481;40;114844;-75
2021/05/03 05:15:25;;;;;;;;;8.75;6.00;;;;;;;;3514414;40;112097;-76
2021/05/03 05:17:51;;;;;;;;;6.75;6.25;;;;;;;;3514276;40;114310;-76
2021/05/03 05:20:19;;;;;;;;;7.75;6.50;;;;;;;;3513741;40;114150;-76
2021/05/03 05:22:45;;;;;;;;;6.00;6.00;;;;;;;;3514431;40;112004;-75
2021/05/03 05:25:11;;;;;;;;;11.75;7.50;;;;;;;;3513976;39;113224;-76
2021/05/03 05:27:38;;;;;;;;;7.75;6.75;;;;;;;;3511575;40;114148;-75
2021/05/03 05:30:05;;;;;;;;;8.75;8.00;;;;;;;;3514103;40;111832;-75
2021/05/03 05:32:31;;;;;;;;;10.00;9.00;;;;;;;;3512344;40;113655;-74
2021/05/03 05:34:58;;;;;;;;;8.75;7.75;;;;;;;;3513631;40;114045;-74
2021/05/03 05:37:25;;;;;;;;;10.00;7.75;;;;;;;;3512293;39;113569;-75
2021/05/03 05:39:51;;;;;;;;;9.00;8.00;;;;;;;;3511474;39;114272;-74
2021/05/03 05:42:17;;;;;;;;;13.50;10.00;;;;;;;;3510079;39;111909;-75
2021/05/03 05:44:43;;;;;;;;;14.00;9.50;;;;;;;;3511183;39;113865;-75
2021/05/03 05:47:09;;;;;;;;;8.25;7.25;;;;;;;;3511987;39;113310;-74
2021/05/03 05:49:35;;;;;;;;;13.00;8.75;;;;;;;;3512253;40;112297;-74
2021/05/03 05:52:02;;;;;;;;;16.25;11.75;;;;;;;;3512498;39;113221;-75
2021/05/03 05:54:28;;;;;;;;;8.25;8.00;;;;;;;;3510131;39;114087;-74
2021/05/03 05:56:55;;;;;;;;;11.25;9.50;;;;;;;;3513224;40;112022;-74
2021/05/03 05:59:21;;;;;;;;;8.00;7.50;;;;;;;;3510907;39;114251;-74
2021/05/03 06:01:47;;;;;;;;;13.00;8.75;;;;;;;;3511442;39;112231;-79
2021/05/03 06:04:13;;;;;;;;;10.75;9.00;;;;;;;;3514274;40;113289;-79
2021/05/03 06:06:40;;;;;;;;;8.75;8.00;;;;;;;;3511804;40;113857;-81
2021/05/03 06:09:06;;;;;;;;;8.50;7.00;;;;;;;;3513965;40;112652;-81
2021/05/03 06:11:33;;;;;;;;;9.75;7.00;;;;;;;;3514385;40;113240;-82
2021/05/03 06:13:59;;;;;;;;;9.00;9.00;;;;;;;;3514255;40;113952;-84
2021/05/03 06:16:25;;;;;;;;;12.25;10.50;;;;;;;;3517294;40;113282;-85
2021/05/03 06:18:51;;;;;;;;;14.00;11.75;;;;;;;;3513665;40;113930;-84
2021/05/03 06:21:17;;;;;;;;;15.25;12.00;;;;;;;;3514440;40;112836;-77
2021/05/03 06:23:43;;;;;;;;;15.50;15.00;;;;;;;;3514980;39;113473;-79
2021/05/03 06:26:09;;;;;;;;;16.50;12.25;;;;;;;;3514364;39;113807;-81
2021/05/03 06:28:37;;;;;;;;;7.50;7.00;;;;;;;;3515057;40;112193;-83
2021/05/03 06:31:03;;;;;;;;;11.00;10.25;;;;;;;;3514940;39;113335;-80
2021/05/03 06:33:29;;;;;;;;;10.75;9.75;;;;;;;;3514122;40;113847;-80
2021/05/03 06:35:55;;;;;;;;;13.00;9.00;;;;;;;;3514690;39;112467;-80
2021/05/03 06:38:21;;;;;;;;;9.00;8.50;;;;;;;;3516724;40;113897;-80
2021/05/03 06:40:48;;;;;;;;;11.50;11.50;;;;;;;;3514567;40;111751;-80
2021/05/03 06:43:14;;;;;;;;;10.00;9.00;;;;;;;;3514468;40;113763;-79
2021/05/03 06:45:41;;;;;;;;;10.00;8.75;;;;;;;;3514543;40;113836;-81
2021/05/03 06:48:09;;;;;;;;;14.50;9.00;;;;;;;;3514405;39;111788;-79
2021/05/03 06:50:35;;;;;;;;;9.25;8.25;;;;;;;;3506839;40;113382;-81
2021/05/03 06:53:01;;;;;;;;;7.50;7.00;;;;;;;;3510634;40;112765;-79
2021/05/03 06:55:27;;;;;;;;;9.00;9.00;;;;;;;;3499151;39;112005;-77
2021/05/03 06:57:54;;;;;;;;;9.00;8.00;;;;;;;;3514816;39;113463;-80
2021/05/03 07:00:20;;;;;;;;;8.75;7.25;;;;;;;;3515845;40;114478;-80
2021/05/03 07:02:48;;;;;;;;;8.00;6.50;;;;;;;;3514141;40;113205;-81
2021/05/03 07:05:14;;;;;;;;;7.00;7.00;;;;;;;;3512273;40;114148;-82
2021/05/03 07:07:40;;;;;;;;;9.25;6.50;;;;;;;;3513707;40;113026;-77
2021/05/03 07:10:06;;;;;;;;;8.00;8.00;;;;;;;;3513189;39;113455;-78
2021/05/03 07:12:35;;;;;;;;;6.75;5.25;;;;;;;;3512789;40;114050;-80
2021/05/03 07:15:01;;;;;;;;;4.75;4.75;;;;;;;;3511337;40;111867;-79
2021/05/03 07:17:27;;;;;;;;;5.25;5.25;;;;;;;;3513921;40;113400;-77
2021/05/03 07:19:54;;;;;;;;;6.00;5.00;;;;;;;;3513168;40;115135;-76
2021/05/03 07:22:22;;;;;;;;;4.00;2.75;;;;;;;;3516011;40;112659;-76
2021/05/03 07:24:49;;;;;;;;;4.50;4.50;;;;;;;;3512772;40;114233;-82
2021/05/03 07:27:16;;;;;;;;;5.00;5.00;;;;;;;;3513150;40;112230;-77
2021/05/03 07:29:42;;;;;;;;;6.00;5.25;;;;;;;;3513482;40;113438;-76
2021/05/03 07:32:08;;;;;;;;;6.75;5.00;;;;;;;;3512386;40;114084;-77
2021/05/03 07:34:34;;;;;;;;;10.25;7.00;;;;;;;;3510598;40;111900;-77
2021/05/03 07:37:02;;;;;;;;;6.00;5.75;;;;;;;;3511801;40;113922;-86
2021/05/03 07:39:28;;;;;;;;;11.50;10.00;;;;;;;;3513356;40;114343;-78
2021/05/03 07:41:54;;;;;;;;;9.00;8.00;;;;;;;;3510453;40;111988;-74
2021/05/03 07:44:21;;;;;;;;;4.25;4.25;;;;;;;;3511680;39;113560;-72
2021/05/03 07:46:48;;;;;;;;;4.50;4.50;;;;;;;;3509333;40;111782;-73
2021/05/03 07:49:14;;;;;;;;;5.00;5.00;;;;;;;;3510928;40;112491;-72
2021/05/03 07:51:40;;;;;;;;;3.75;2.75;;;;;;;;3492378;39;113844;-73
2021/05/03 07:54:07;;;;;;;;;5.00;5.00;;;;;;;;3511612;39;112673;-72
2021/05/03 07:56:33;;;;;;;;;4.50;4.50;;;;;;;;3512863;40;113249;-73
2021/05/03 07:58:59;;;;;;;;;2.25;2.25;;;;;;;;3512122;40;114785;-71
2021/05/03 08:01:26;;;;;;;;;3.25;3.25;;;;;;;;3512672;40;111993;-70
2021/05/03 08:03:52;;;;;;;;;4.75;3.25;;;;;;;;3512832;39;113141;-71
2021/05/03 08:06:18;;;;;;;;;3.00;3.00;;;;;;;;3515060;40;113811;-70
2021/05/03 08:08:45;;;;;;;;;5.00;5.00;;;;;;;;3510321;40;113777;-70
2021/05/03 08:11:12;;;;;;;;;9.00;6.00;;;;;;;;3509584;39;112845;-70
2021/05/03 08:13:39;;;;;;;;;5.50;5.00;;;;;;;;3512724;40;111906;-71
2021/05/03 08:16:09;;;;;;;;;5.00;4.00;;;;;;;;3511001;40;114004;-73
2021/05/03 08:18:35;;;;;;;;;4.00;4.00;;;;;;;;3512114;40;113899;-70
2021/05/03 08:21:01;;;;;;;;;5.00;5.00;;;;;;;;3513587;40;112115;-74
2021/05/03 08:23:27;;;;;;;;;5.50;4.75;;;;;;;;3514483;40;113340;-75
2021/05/03 08:25:54;;;;;;;;;3.50;3.50;;;;;;;;3516864;40;114457;-74
2021/05/03 08:28:21;;;;;;;;;6.75;6.00;;;;;;;;3514499;40;113582;-74
2021/05/03 08:30:48;;;;;;;;;10.00;8.25;;;;;;;;3514182;40;113850;-79
2021/05/03 08:33:15;;;;;;;;;2.00;2.00;;;;;;;;3513979;40;111925;-74
2021/05/03 08:35:41;;;;;;;;;4.00;4.00;;;;;;;;3513925;40;113796;-75
2021/05/03 08:38:07;;;;;;;;;16.50;13.50;;;;;;;;3513456;40;113845;-73
2021/05/03 08:40:33;;;;;;;;;3.00;3.00;;;;;;;;3508994;40;111861;-75
2021/05/03 08:43:01;;;;;;;;;4.00;4.00;;;;;;;;3509595;39;113302;-72
2021/05/03 08:45:28;;;;;;;;;9.00;6.00;;;;;;;;3513015;39;113832;-73
2021/05/03 08:48:04;;;;;;;;;5.00;5.00;;;;;;;;3515578;40;112135;-73
2021/05/03 09:03:26;;;;;;;;;6.00;5.00;;;;;;;;4727564;22;114300;-73
2021/05/03 09:05:52;;;;;;;;;5.00;5.00;;;;;;;;3528010;39;113693;-73
2021/05/03 09:08:22;;;;;;;;;7.00;6.33;;;;;;;;3528316;39;113310;-75
2021/05/03 09:10:49;;;;;;;;;3.00;3.00;;;;;;;;3532265;39;113662;-73
2021/05/03 09:13:15;;;;;;;;;4.00;3.00;;;;;;;;3527956;39;111939;-75
2021/05/03 09:15:41;;;;;;;;;14.75;14.00;;;;;;;;3528536;39;113628;-73
2021/05/03 09:18:07;;;;;;;;;9.33;9.33;;;;;;;;3525892;39;113945;-75
2021/05/03 09:20:34;;;;;;;;;3.33;3.00;;;;;;;;3528138;39;111958;-75
2021/05/03 09:23:04;;;;;;;;;5.00;5.00;;;;;;;;3529591;39;113754;-76
2021/05/03 09:25:33;;;;;;;;;3.00;2.67;;;;;;;;3527941;39;113826;-76
2021/05/03 09:28:04;;;;;;;;;3.00;3.00;;;;;;;;3528759;39;112504;-73
2021/05/03 09:30:34;;;;;;;;;15.00;13.00;;;;;;;;3526801;39;113278;-73
2021/05/03 09:33:17;;;;;;;;;9.33;8.00;;;;;;;;3529524;39;114119;-73
2021/05/03 09:35:45;;;;;;;;;0.33;0.00;;;;;;;;3526850;39;113683;-76
2021/05/03 09:38:26;;;;;;;;;3.00;3.00;;;;;;;;3524550;39;113851;-73
2021/05/03 09:41:05;;;;;;;;;4.00;3.00;;;;;;;;3527018;39;111908;-73
2021/05/03 09:43:32;;;;;;;;;15.50;13.75;;;;;;;;3527216;39;113432;-72
2021/05/03 09:45:58;;;;;;;;;4.00;4.00;;;;;;;;3528035;39;113994;-72
2021/05/03 09:48:24;;;;;;;;;6.67;5.67;;;;;;;;3528024;39;112063;-72
2021/05/03 09:50:51;;;;;;;;;3.33;3.33;;;;;;;;3528075;39;113412;-74
2021/05/03 09:53:17;;;;;;;;;4.00;4.00;;;;;;;;3525935;39;113945;-72
2021/05/03 09:55:44;;;;;;;;;4.00;4.00;;;;;;;;3532090;39;112746;-73
2021/05/03 09:58:14;;;;;;;;;5.67;4.00;;;;;;;;3526689;39;113591;-75
2021/05/03 10:00:41;;;;;;;;;9.67;9.33;;;;;;;;3529203;39;112454;-77
2021/05/03 10:03:26;;;;;;;;;11.00;9.75;;;;;;;;3527853;39;113605;-73
2021/05/03 10:05:53;;;;;;;;;9.00;8.50;;;;;;;;3522867;39;114032;-72
2021/05/03 10:08:19;;;;;;;;;12.75;11.75;;;;;;;;3527403;39;112112;-71
2021/05/03 10:10:48;;;;;;;;;6.00;4.00;;;;;;;;3529603;39;113585;-71
2021/05/03 10:13:14;;;;;;;;;5.25;3.75;;;;;;;;3524956;39;113978;-71
2021/05/03 10:15:41;;;;;;;;;2.50;2.50;;;;;;;;3528170;39;112596;-73
2021/05/03 10:18:07;;;;;;;;;4.00;3.25;;;;;;;;3528783;39;113303;-72
2021/05/03 10:20:33;;;;;;;;;4.00;3.75;;;;;;;;3527200;39;112380;-73
2021/05/03 10:23:00;;;;;;;;;7.00;4.00;;;;;;;;3528236;39;113274;-73
2021/05/03 10:25:26;;;;;;;;;5.25;4.00;;;;;;;;3527725;39;113892;-72
2021/05/03 10:27:53;;;;;;;;;3.00;3.00;;;;;;;;3527381;39;113028;-70
2021/05/03 10:30:20;;;;;;;;;6.00;4.75;;;;;;;;3526665;39;113430;-69
2021/05/03 10:32:57;;;;;;;;;5.00;4.00;;;;;;;;3525948;39;114432;-71
2021/05/03 10:35:24;;;;;;;;;4.75;4.25;;;;;;;;3526163;39;112244;-72
2021/05/03 10:37:51;;;;;;;;;13.75;9.75;;;;;;;;3531229;39;113216;-71
2021/05/03 10:40:51;;;;;;;;;19.00;16.00;;;;;;;;3528663;39;112101;-70
2021/05/03 10:43:23;;;;;;;;;4.50;3.75;;;;;;;;3525518;39;113349;-71
2021/05/03 10:46:01;;;;;;;;;4.50;4.00;;;;;;;;3525977;39;113846;-70
2021/05/03 10:48:28;;;;;;;;;8.25;7.00;;;;;;;;3527601;39;112039;-72
2021/05/03 10:50:54;;;;;;;;;3.00;3.00;;;;;;;;3528908;39;113303;-71
2021/05/03 10:53:31;;;;;;;;;3.25;3.00;;;;;;;;3527704;39;114011;-72
2021/05/03 10:55:59;;;;;;;;;3.25;3.25;;;;;;;;3524833;39;112540;-73
2021/05/03 10:58:26;;;;;;;;;2.75;2.75;;;;;;;;3527970;39;113581;-73
2021/05/03 11:00:56;;;;;;;;;5.25;5.25;;;;;;;;3529823;39;114022;-74
2021/05/03 11:03:37;;;;;;;;;3.75;3.75;;;;;;;;3528298;39;113868;-73
2021/05/03 11:06:03;;;;;;;;;6.50;5.50;;;;;;;;3526791;39;114288;-71
2021/05/03 11:08:31;;;;;;;;;6.50;5.00;;;;;;;;3525639;39;112222;-71
2021/05/03 11:11:04;;;;;;;;;5.00;3.50;;;;;;;;3527049;39;113304;-73
2021/05/03 11:13:58;;;;;;;;;4.00;4.00;;;;;;;;3527642;39;114475;-74
2021/05/03 11:16:44;;;;;;;;;2.50;2.50;;;;;;;;3525379;39;112785;-72
2021/05/03 11:19:24;;;;;;;;;4.00;4.00;;;;;;;;3527242;39;113310;-73
2021/05/03 11:21:51;;;;;;;;;7.00;6.00;;;;;;;;3525460;39;114151;-72
2021/05/03 11:24:20;;;;;;;;;4.00;4.00;;;;;;;;3531978;39;111966;-70
2021/05/03 11:26:47;;;;;;;;;7.50;5.75;;;;;;;;3525946;39;114028;-70
2021/05/03 11:29:17;;;;;;;;;9.50;4.00;;;;;;;;3525332;39;111976;-71
2021/05/03 11:31:44;;;;;;;;;5.00;5.00;;;;;;;;3526824;39;113813;-69
2021/05/03 11:34:17;;;;;;;;;6.75;4.50;;;;;;;;3523807;39;113871;-70
2021/05/03 11:36:48;;;;;;;;;3.25;3.00;;;;;;;;3528259;39;111984;-68
2021/05/03 11:39:28;;;;;;;;;4.50;4.50;;;;;;;;3519074;39;114545;-70
2021/05/03 11:42:23;;;;;;;;;5.00;4.00;;;;;;;;3525194;39;114064;-71
2021/05/03 11:44:51;;;;;;;;;6.00;3.00;;;;;;;;3522626;39;113071;-69
2021/05/03 11:47:25;;;;;;;;;5.00;5.00;;;;;;;;3529858;39;113313;-70
2021/05/03 11:49:51;;;;;;;;;5.00;5.00;;;;;;;;3528082;39;111911;-72
2021/05/03 11:52:25;;;;;;;;;5.75;5.00;;;;;;;;3527966;39;113371;-69
2021/05/03 11:54:52;;;;;;;;;3.00;3.00;;;;;;;;3526099;39;114282;-72
2021/05/03 11:57:20;;;;;;;;;2.75;2.75;;;;;;;;3529693;39;111860;-72
2021/05/03 11:59:47;;;;;;;;;5.50;5.50;;;;;;;;3526169;39;113251;-72
2021/05/03 12:02:14;;;;;;;;;2.00;2.00;;;;;;;;3528911;39;113809;-72
2021/05/03 12:04:41;;;;;;;;;3.25;3.25;;;;;;;;3528346;39;113083;-71
2021/05/03 12:07:11;;;;;;;;;6.00;4.25;;;;;;;;3528866;39;113087;-70
2021/05/03 12:09:37;;;;;;;;;5.25;5.00;;;;;;;;3530602;39;114298;-70
2021/05/03 12:12:05;;;;;;;;;3.25;3.25;;;;;;;;3529180;39;113395;-73
2021/05/03 12:14:38;;;;;;;;;5.25;4.00;;;;;;;;3528485;39;114014;-73
2021/05/03 12:17:13;;;;;;;;;4.50;4.50;;;;;;;;3529298;39;111741;-74
2021/05/03 12:19:39;;;;;;;;;6.00;6.00;;;;;;;;3526039;39;113571;-70
2021/05/03 12:22:05;;;;;;;;;6.75;4.25;;;;;;;;3528518;39;114420;-71
2021/05/03 12:24:34;;;;;;;;;4.00;3.25;;;;;;;;3529042;39;112218;-69
2021/05/03 12:27:00;;;;;;;;;4.25;4.25;;;;;;;;3528715;39;113201;-71
2021/05/03 12:29:28;;;;;;;;;4.75;4.25;;;;;;;;3528250;39;113564;-70
2021/05/03 12:31:54;;;;;;;;;4.00;4.00;;;;;;;;3531012;39;112220;-71
2021/05/03 12:34:21;;;;;;;;;3.00;3.00;;;;;;;;3529031;39;114287;-71
2021/05/03 12:37:03;;;;;;;;;4.00;4.00;;;;;;;;3527283;39;111857;-71
2021/05/03 12:39:29;;;;;;;;;5.00;5.00;;;;;;;;3523191;39;113279;-73
2021/05/03 12:41:55;;;;;;;;;5.00;4.00;;;;;;;;3528965;39;114056;-72
2021/05/03 12:44:25;;;;;;;;;4.00;3.00;;;;;;;;3527444;39;113291;-68
2021/05/03 12:46:53;;;;;;;;;7.00;6.75;;;;;;;;3528137;39;113942;-72
2021/05/03 12:49:25;;;;;;;;;5.00;5.00;;;;;;;;3528840;39;114115;-70
2021/05/03 12:52:02;;;;;;;;;4.75;4.75;;;;;;;;3529401;39;111838;-72
2021/05/03 12:54:38;;;;;;;;;2.50;2.50;;;;;;;;3527850;39;113911;-71
2021/05/03 12:57:09;;;;;;;;;6.00;5.75;;;;;;;;3527914;39;112489;-71
2021/05/03 12:59:42;;;;;;;;;6.25;5.00;;;;;;;;3527954;39;113853;-71
2021/05/03 13:02:14;;;;;;;;;3.75;3.00;;;;;;;;3527478;39;114594;-70
2021/05/03 13:04:49;;;;;;;;;3.25;3.25;;;;;;;;3527260;39;112033;-71
2021/05/03 13:07:37;;;;;;;;;6.00;5.00;;;;;;;;3525530;39;113749;-71
2021/05/03 13:29:39;;;;;;;;;12.00;11.50;;;;;;;;3523088;39;113066;-72
2021/05/03 13:32:05;;;;;;;;;4.00;4.00;;;;;;;;3523719;39;113679;-72
2021/05/03 13:34:32;;;;;;;;;7.75;6.50;;;;;;;;3524642;39;112360;-71
2021/05/03 13:36:58;;;;;;;;;11.00;8.00;;;;;;;;3524289;39;113376;-72
2021/05/03 13:39:24;;;;;;;;;9.50;7.75;;;;;;;;3526471;39;113938;-72
2021/05/03 13:41:50;;;;;;;;;4.00;4.00;;;;;;;;3524669;39;113323;-73
2021/05/03 13:44:18;;;;;;;;;6.00;4.00;;;;;;;;3524865;39;113846;-71
2021/05/03 13:46:44;;;;;;;;;4.00;4.00;;;;;;;;3525220;39;112015;-72
2021/05/03 13:49:10;;;;;;;;;4.00;4.00;;;;;;;;3524011;39;113814;-71
2021/05/03 13:51:37;;;;;;;;;4.00;2.00;;;;;;;;3524506;39;114331;-71
2021/05/03 13:54:04;;;;;;;;;5.00;5.00;;;;;;;;3524217;39;112137;-72
2021/05/03 13:56:30;;;;;;;;;5.00;4.00;;;;;;;;3522788;39;113243;-72
2021/05/03 13:58:56;;;;;;;;;4.75;4.00;;;;;;;;3524397;39;113887;-72
2021/05/03 14:01:22;;;;;;;;;4.00;3.00;;;;;;;;3528953;39;112601;-70
2021/05/03 14:03:48;;;;;;;;;4.25;4.25;;;;;;;;3529265;39;114065;-69
2021/05/03 14:06:16;;;;;;;;;5.75;4.00;;;;;;;;3524830;39;111960;-71
2021/05/03 14:08:43;;;;;;;;;3.00;3.00;;;;;;;;3529015;39;113281;-68
2021/05/03 14:11:09;;;;;;;;;3.50;3.00;;;;;;;;3527115;39;114781;-68
2021/05/03 14:13:36;;;;;;;;;4.00;3.75;;;;;;;;3527124;39;111982;-68
2021/05/03 14:16:02;;;;;;;;;5.50;3.75;;;;;;;;3528419;39;113269;-68
2021/05/03 14:18:29;;;;;;;;;3.25;3.25;;;;;;;;3527572;39;113750;-69
2021/05/03 14:20:55;;;;;;;;;6.50;6.00;;;;;;;;3525444;39;111949;-69
2021/05/03 14:23:21;;;;;;;;;4.00;4.00;;;;;;;;3529886;39;113296;-68
2021/05/03 14:25:50;;;;;;;;;5.00;4.50;;;;;;;;3529367;39;112150;-69
2021/05/03 14:28:21;;;;;;;;;4.50;4.25;;;;;;;;3525358;39;113696;-69
2021/05/03 14:30:51;;;;;;;;;5.00;3.50;;;;;;;;3527290;39;113878;-70
2021/05/03 14:33:19;;;;;;;;;4.25;4.25;;;;;;;;3525743;39;111940;-69
2021/05/03 14:35:45;;;;;;;;;6.50;5.50;;;;;;;;3525713;39;113430;-71
2021/05/03 14:38:11;;;;;;;;;3.00;3.00;;;;;;;;3526695;39;114065;-76
2021/05/03 14:40:37;;;;;;;;;3.00;3.00;;;;;;;;3528555;39;112151;-80
2021/05/03 14:43:06;;;;;;;;;2.25;1.75;;;;;;;;3527137;39;113269;-74
2021/05/03 14:45:35;;;;;;;;;2.00;2.00;;;;;;;;3528208;39;111847;-75
2021/05/03 14:48:04;;;;;;;;;3.75;2.50;;;;;;;;3528194;39;113419;-78
2021/05/03 14:50:40;;;;;;;;;7.50;5.00;;;;;;;;3527572;39;114153;-76
2021/05/03 14:53:27;;;;;;;;;2.00;2.00;;;;;;;;3528335;39;111909;-80
2021/05/03 14:55:53;;;;;;;;;5.25;2.00;;;;;;;;3526463;39;114341;-77
2021/05/03 14:58:20;;;;;;;;;2.50;2.50;;;;;;;;3528472;39;114401;-74
2021/05/03 15:00:46;;;;;;;;;2.00;2.00;;;;;;;;3526853;39;111843;-73
2021/05/03 15:03:12;;;;;;;;;3.00;3.00;;;;;;;;3527535;39;113630;-74
2021/05/03 15:05:40;;;;;;;;;2.25;2.25;;;;;;;;3525065;39;113872;-74
2021/05/03 15:08:07;;;;;;;;;1.25;1.25;;;;;;;;3527529;39;113352;-75
2021/05/03 15:10:33;;;;;;;;;1.50;1.50;;;;;;;;3525966;39;114227;-76
2021/05/03 15:13:09;;;;;;;;;6.50;2.00;;;;;;;;3528228;39;112082;-75